sensor_id;sensor_type;location;lat;lon;timestamp;P1;durP1;ratioP1;P2;durP2;ratioP2
51556;SDS011;38766;53.194;5.532;2024-01-10T00:02:00;11.50;;;6.32;;
51556;SDS011;38766;53.194;5.532;2024-01-10T00:04:25;11.85;;;6.25;;
51556;SDS011;38766;53.194;5.532;2024-01-10T00:06:51;10.05;;;6.55;;
51556;SDS011;38766;53.194;5.532;2024-01-10T00:09:17;11.75;;;7.50;;
51556;SDS011;38766;53.194;5.532;2024-01-10T00:11:42;11.45;;;7.30;;
51556;SDS011;38766;53.194;5.532;2024-01-10T00:14:08;10.48;;;6.43;;
51556;SDS011;38766;53.194;5.532;2024-01-10T00:16:34;11.73;;;7.50;;
51556;SDS011;38766;53.194;5.532;2024-01-10T00:19:00;11.63;;;6.85;;
51556;SDS011;38766;53.194;5.532;2024-01-10T00:21:26;11.48;;;7.65;;
51556;SDS011;38766;53.194;5.532;2024-01-10T00:23:52;12.38;;;7.25;;
51556;SDS011;38766;53.194;5.532;2024-01-10T00:26:17;10.57;;;8.27;;
51556;SDS011;38766;53.194;5.532;2024-01-10T00:28:43;11.10;;;7.35;;
51556;SDS011;38766;53.194;5.532;2024-01-10T00:31:11;12.55;;;7.95;;
51556;SDS011;38766;53.194;5.532;2024-01-10T00:33:37;12.32;;;7.75;;
51556;SDS011;38766;53.194;5.532;2024-01-10T00:36:03;12.60;;;7.72;;
51556;SDS011;38766;53.194;5.532;2024-01-10T00:38:29;10.65;;;7.57;;
51556;SDS011;38766;53.194;5.532;2024-01-10T00:40:54;11.13;;;7.28;;
51556;SDS011;38766;53.194;5.532;2024-01-10T00:43:21;11.75;;;7.50;;
51556;SDS011;38766;53.194;5.532;2024-01-10T00:45:46;11.98;;;7.50;;
51556;SDS011;38766;53.194;5.532;2024-01-10T00:48:12;10.55;;;6.78;;
51556;SDS011;38766;53.194;5.532;2024-01-10T00:50:37;10.45;;;7.03;;
51556;SDS011;38766;53.194;5.532;2024-01-10T00:53:03;10.93;;;7.45;;
51556;SDS011;38766;53.194;5.532;2024-01-10T00:55:29;12.95;;;7.85;;
51556;SDS011;38766;53.194;5.532;2024-01-10T00:57:54;13.38;;;7.95;;
51556;SDS011;38766;53.194;5.532;2024-01-10T01:00:20;15.23;;;7.82;;
51556;SDS011;38766;53.194;5.532;2024-01-10T01:02:46;14.02;;;7.72;;
51556;SDS011;38766;53.194;5.532;2024-01-10T01:05:11;11.70;;;7.30;;
51556;SDS011;38766;53.194;5.532;2024-01-10T01:07:37;12.63;;;8.57;;
51556;SDS011;38766;53.194;5.532;2024-01-10T01:10:03;13.05;;;7.72;;
51556;SDS011;38766;53.194;5.532;2024-01-10T01:12:29;12.32;;;7.85;;
51556;SDS011;38766;53.194;5.532;2024-01-10T01:14:54;12.70;;;7.47;;
51556;SDS011;38766;53.194;5.532;2024-01-10T01:17:20;16.42;;;8.82;;
51556;SDS011;38766;53.194;5.532;2024-01-10T01:19:46;14.13;;;8.43;;
51556;SDS011;38766;53.194;5.532;2024-01-10T01:22:11;12.95;;;8.13;;
51556;SDS011;38766;53.194;5.532;2024-01-10T01:24:37;13.63;;;8.52;;
51556;SDS011;38766;53.194;5.532;2024-01-10T01:27:03;12.90;;;8.35;;
51556;SDS011;38766;53.194;5.532;2024-01-10T01:29:28;14.30;;;8.60;;
51556;SDS011;38766;53.194;5.532;2024-01-10T01:31:54;13.88;;;8.32;;
51556;SDS011;38766;53.194;5.532;2024-01-10T01:34:20;13.75;;;8.52;;
51556;SDS011;38766;53.194;5.532;2024-01-10T01:36:45;15.85;;;9.63;;
51556;SDS011;38766;53.194;5.532;2024-01-10T01:39:11;14.60;;;9.45;;
51556;SDS011;38766;53.194;5.532;2024-01-10T01:41:38;13.10;;;8.90;;
51556;SDS011;38766;53.194;5.532;2024-01-10T01:44:04;16.48;;;9.77;;
51556;SDS011;38766;53.194;5.532;2024-01-10T01:46:30;13.77;;;9.25;;
51556;SDS011;38766;53.194;5.532;2024-01-10T01:48:57;17.42;;;10.07;;
51556;SDS011;38766;53.194;5.532;2024-01-10T01:51:23;14.52;;;9.07;;
51556;SDS011;38766;53.194;5.532;2024-01-10T01:53:51;18.48;;;9.25;;
51556;SDS011;38766;53.194;5.532;2024-01-10T01:56:18;13.45;;;9.27;;
51556;SDS011;38766;53.194;5.532;2024-01-10T01:58:44;13.55;;;9.50;;
51556;SDS011;38766;53.194;5.532;2024-01-10T02:01:13;15.45;;;9.77;;
51556;SDS011;38766;53.194;5.532;2024-01-10T02:03:39;16.05;;;9.73;;
51556;SDS011;38766;53.194;5.532;2024-01-10T02:06:05;16.58;;;10.63;;
51556;SDS011;38766;53.194;5.532;2024-01-10T02:08:32;16.13;;;10.23;;
51556;SDS011;38766;53.194;5.532;2024-01-10T02:10:58;16.35;;;10.18;;
51556;SDS011;38766;53.194;5.532;2024-01-10T02:13:25;15.13;;;9.88;;
51556;SDS011;38766;53.194;5.532;2024-01-10T02:15:51;18.77;;;11.38;;
51556;SDS011;38766;53.194;5.532;2024-01-10T02:18:17;18.60;;;11.35;;
51556;SDS011;38766;53.194;5.532;2024-01-10T02:20:46;18.27;;;10.65;;
51556;SDS011;38766;53.194;5.532;2024-01-10T02:23:11;16.98;;;10.63;;
51556;SDS011;38766;53.194;5.532;2024-01-10T02:25:38;19.73;;;10.82;;
51556;SDS011;38766;53.194;5.532;2024-01-10T02:28:05;17.70;;;11.07;;
51556;SDS011;38766;53.194;5.532;2024-01-10T02:30:31;17.80;;;11.57;;
51556;SDS011;38766;53.194;5.532;2024-01-10T02:33:02;18.80;;;12.60;;
51556;SDS011;38766;53.194;5.532;2024-01-10T02:35:29;22.30;;;12.13;;
51556;SDS011;38766;53.194;5.532;2024-01-10T02:37:58;18.63;;;11.38;;
51556;SDS011;38766;53.194;5.532;2024-01-10T02:40:24;18.70;;;11.98;;
51556;SDS011;38766;53.194;5.532;2024-01-10T02:42:49;18.42;;;11.23;;
51556;SDS011;38766;53.194;5.532;2024-01-10T02:45:16;19.42;;;12.55;;
51556;SDS011;38766;53.194;5.532;2024-01-10T02:47:42;19.33;;;11.35;;
51556;SDS011;38766;53.194;5.532;2024-01-10T02:50:08;21.55;;;12.23;;
51556;SDS011;38766;53.194;5.532;2024-01-10T02:52:34;19.48;;;12.52;;
51556;SDS011;38766;53.194;5.532;2024-01-10T02:54:59;22.88;;;12.93;;
51556;SDS011;38766;53.194;5.532;2024-01-10T02:57:25;20.45;;;12.43;;
51556;SDS011;38766;53.194;5.532;2024-01-10T02:59:51;19.77;;;13.27;;
51556;SDS011;38766;53.194;5.532;2024-01-10T03:02:16;20.80;;;13.13;;
51556;SDS011;38766;53.194;5.532;2024-01-10T03:04:42;23.50;;;13.68;;
51556;SDS011;38766;53.194;5.532;2024-01-10T03:07:09;18.10;;;12.10;;
51556;SDS011;38766;53.194;5.532;2024-01-10T03:09:35;21.67;;;13.35;;
51556;SDS011;38766;53.194;5.532;2024-01-10T03:12:00;19.48;;;12.68;;
51556;SDS011;38766;53.194;5.532;2024-01-10T03:14:26;21.73;;;12.45;;
51556;SDS011;38766;53.194;5.532;2024-01-10T03:16:52;22.40;;;13.05;;
51556;SDS011;38766;53.194;5.532;2024-01-10T03:19:18;20.80;;;13.40;;
51556;SDS011;38766;53.194;5.532;2024-01-10T03:21:44;23.48;;;13.27;;
51556;SDS011;38766;53.194;5.532;2024-01-10T03:24:09;21.08;;;12.80;;
51556;SDS011;38766;53.194;5.532;2024-01-10T03:26:35;21.77;;;13.63;;
51556;SDS011;38766;53.194;5.532;2024-01-10T03:29:01;21.27;;;13.73;;
51556;SDS011;38766;53.194;5.532;2024-01-10T03:31:30;22.65;;;13.90;;
51556;SDS011;38766;53.194;5.532;2024-01-10T03:34:00;23.02;;;14.00;;
51556;SDS011;38766;53.194;5.532;2024-01-10T03:36:26;22.05;;;13.40;;
51556;SDS011;38766;53.194;5.532;2024-01-10T03:38:52;20.90;;;14.07;;
51556;SDS011;38766;53.194;5.532;2024-01-10T03:41:18;23.17;;;13.35;;
51556;SDS011;38766;53.194;5.532;2024-01-10T03:43:45;23.30;;;14.68;;
51556;SDS011;38766;53.194;5.532;2024-01-10T03:46:11;23.45;;;14.18;;
51556;SDS011;38766;53.194;5.532;2024-01-10T03:48:37;19.83;;;13.65;;
51556;SDS011;38766;53.194;5.532;2024-01-10T03:51:05;23.88;;;14.07;;
51556;SDS011;38766;53.194;5.532;2024-01-10T03:53:31;20.23;;;13.68;;
51556;SDS011;38766;53.194;5.532;2024-01-10T03:55:56;22.10;;;13.38;;
51556;SDS011;38766;53.194;5.532;2024-01-10T03:58:23;22.13;;;13.48;;
51556;SDS011;38766;53.194;5.532;2024-01-10T04:00:49;23.85;;;13.30;;
51556;SDS011;38766;53.194;5.532;2024-01-10T04:03:14;22.75;;;13.38;;
51556;SDS011;38766;53.194;5.532;2024-01-10T04:05:42;24.35;;;13.38;;
51556;SDS011;38766;53.194;5.532;2024-01-10T04:08:08;22.98;;;14.23;;
51556;SDS011;38766;53.194;5.532;2024-01-10T04:10:33;19.80;;;13.50;;
51556;SDS011;38766;53.194;5.532;2024-01-10T04:12:59;19.92;;;12.75;;
51556;SDS011;38766;53.194;5.532;2024-01-10T04:15:27;20.85;;;13.27;;
51556;SDS011;38766;53.194;5.532;2024-01-10T04:17:53;21.25;;;12.90;;
51556;SDS011;38766;53.194;5.532;2024-01-10T04:20:18;19.90;;;12.75;;
51556;SDS011;38766;53.194;5.532;2024-01-10T04:22:44;23.35;;;13.30;;
51556;SDS011;38766;53.194;5.532;2024-01-10T04:25:10;19.77;;;12.05;;
51556;SDS011;38766;53.194;5.532;2024-01-10T04:27:36;21.60;;;13.07;;
51556;SDS011;38766;53.194;5.532;2024-01-10T04:30:02;20.10;;;12.85;;
51556;SDS011;38766;53.194;5.532;2024-01-10T04:32:28;19.02;;;12.18;;
51556;SDS011;38766;53.194;5.532;2024-01-10T04:34:53;22.05;;;12.85;;
51556;SDS011;38766;53.194;5.532;2024-01-10T04:37:19;20.27;;;12.02;;
51556;SDS011;38766;53.194;5.532;2024-01-10T04:39:45;20.23;;;12.40;;
51556;SDS011;38766;53.194;5.532;2024-01-10T04:42:11;22.33;;;12.70;;
51556;SDS011;38766;53.194;5.532;2024-01-10T04:44:37;20.77;;;11.85;;
51556;SDS011;38766;53.194;5.532;2024-01-10T04:47:03;21.95;;;11.80;;
51556;SDS011;38766;53.194;5.532;2024-01-10T04:49:29;20.17;;;11.90;;
51556;SDS011;38766;53.194;5.532;2024-01-10T04:51:55;16.38;;;11.20;;
51556;SDS011;38766;53.194;5.532;2024-01-10T04:54:20;20.38;;;11.70;;
51556;SDS011;38766;53.194;5.532;2024-01-10T04:56:46;19.60;;;11.70;;
51556;SDS011;38766;53.194;5.532;2024-01-10T04:59:12;22.63;;;12.25;;
51556;SDS011;38766;53.194;5.532;2024-01-10T05:01:37;16.85;;;11.63;;
51556;SDS011;38766;53.194;5.532;2024-01-10T05:04:03;22.17;;;11.88;;
51556;SDS011;38766;53.194;5.532;2024-01-10T05:06:29;18.13;;;11.15;;
51556;SDS011;38766;53.194;5.532;2024-01-10T05:08:55;18.60;;;11.05;;
51556;SDS011;38766;53.194;5.532;2024-01-10T05:11:24;18.00;;;11.35;;
51556;SDS011;38766;53.194;5.532;2024-01-10T05:13:53;17.33;;;11.60;;
51556;SDS011;38766;53.194;5.532;2024-01-10T05:16:19;17.75;;;10.38;;
51556;SDS011;38766;53.194;5.532;2024-01-10T05:18:45;18.23;;;10.88;;
51556;SDS011;38766;53.194;5.532;2024-01-10T05:21:11;20.92;;;12.05;;
51556;SDS011;38766;53.194;5.532;2024-01-10T05:23:37;17.30;;;10.73;;
51556;SDS011;38766;53.194;5.532;2024-01-10T05:26:04;18.25;;;11.48;;
51556;SDS011;38766;53.194;5.532;2024-01-10T05:28:30;18.17;;;10.82;;
51556;SDS011;38766;53.194;5.532;2024-01-10T05:30:56;16.42;;;10.98;;
51556;SDS011;38766;53.194;5.532;2024-01-10T05:33:22;18.80;;;11.10;;
51556;SDS011;38766;53.194;5.532;2024-01-10T05:35:48;16.25;;;10.40;;
51556;SDS011;38766;53.194;5.532;2024-01-10T05:38:13;17.60;;;9.95;;
51556;SDS011;38766;53.194;5.532;2024-01-10T05:40:39;16.17;;;10.02;;
51556;SDS011;38766;53.194;5.532;2024-01-10T05:43:05;17.48;;;10.73;;
51556;SDS011;38766;53.194;5.532;2024-01-10T05:45:32;19.05;;;11.18;;
51556;SDS011;38766;53.194;5.532;2024-01-10T05:47:58;19.17;;;11.15;;
51556;SDS011;38766;53.194;5.532;2024-01-10T05:50:24;17.58;;;10.15;;
51556;SDS011;38766;53.194;5.532;2024-01-10T05:52:53;20.00;;;11.80;;
51556;SDS011;38766;53.194;5.532;2024-01-10T05:55:18;17.33;;;11.13;;
51556;SDS011;38766;53.194;5.532;2024-01-10T05:57:44;20.08;;;11.70;;
51556;SDS011;38766;53.194;5.532;2024-01-10T06:00:10;22.42;;;12.48;;
51556;SDS011;38766;53.194;5.532;2024-01-10T06:02:36;21.73;;;11.45;;
51556;SDS011;38766;53.194;5.532;2024-01-10T06:05:08;19.15;;;11.90;;
51556;SDS011;38766;53.194;5.532;2024-01-10T06:07:38;19.05;;;11.88;;
51556;SDS011;38766;53.194;5.532;2024-01-10T06:10:06;19.65;;;11.63;;
51556;SDS011;38766;53.194;5.532;2024-01-10T06:12:32;19.88;;;12.25;;
51556;SDS011;38766;53.194;5.532;2024-01-10T06:14:57;21.83;;;12.77;;
51556;SDS011;38766;53.194;5.532;2024-01-10T06:17:23;19.35;;;12.27;;
51556;SDS011;38766;53.194;5.532;2024-01-10T06:19:49;19.95;;;12.13;;
51556;SDS011;38766;53.194;5.532;2024-01-10T06:22:15;20.88;;;12.20;;
51556;SDS011;38766;53.194;5.532;2024-01-10T06:24:41;19.40;;;12.82;;
51556;SDS011;38766;53.194;5.532;2024-01-10T06:27:07;22.02;;;13.20;;
51556;SDS011;38766;53.194;5.532;2024-01-10T06:29:33;18.83;;;11.80;;
51556;SDS011;38766;53.194;5.532;2024-01-10T06:31:59;20.33;;;12.50;;
51556;SDS011;38766;53.194;5.532;2024-01-10T06:34:26;24.02;;;13.30;;
51556;SDS011;38766;53.194;5.532;2024-01-10T06:36:52;21.08;;;13.32;;
51556;SDS011;38766;53.194;5.532;2024-01-10T06:39:17;22.50;;;12.73;;
51556;SDS011;38766;53.194;5.532;2024-01-10T06:41:45;21.23;;;12.98;;
51556;SDS011;38766;53.194;5.532;2024-01-10T06:44:12;21.77;;;13.13;;
51556;SDS011;38766;53.194;5.532;2024-01-10T06:46:37;21.48;;;13.52;;
51556;SDS011;38766;53.194;5.532;2024-01-10T06:49:03;21.05;;;12.85;;
51556;SDS011;38766;53.194;5.532;2024-01-10T06:51:29;21.15;;;13.00;;
51556;SDS011;38766;53.194;5.532;2024-01-10T06:53:55;21.38;;;13.98;;
51556;SDS011;38766;53.194;5.532;2024-01-10T06:56:27;22.63;;;13.65;;
51556;SDS011;38766;53.194;5.532;2024-01-10T06:58:53;20.92;;;13.77;;
51556;SDS011;38766;53.194;5.532;2024-01-10T07:01:19;20.95;;;12.82;;
51556;SDS011;38766;53.194;5.532;2024-01-10T07:03:47;25.80;;;14.07;;
51556;SDS011;38766;53.194;5.532;2024-01-10T07:06:12;22.50;;;12.65;;
51556;SDS011;38766;53.194;5.532;2024-01-10T07:08:41;20.25;;;13.63;;
51556;SDS011;38766;53.194;5.532;2024-01-10T07:11:10;24.48;;;14.60;;
51556;SDS011;38766;53.194;5.532;2024-01-10T07:13:39;21.05;;;13.43;;
51556;SDS011;38766;53.194;5.532;2024-01-10T07:16:06;24.08;;;14.57;;
51556;SDS011;38766;53.194;5.532;2024-01-10T07:18:32;21.80;;;13.88;;
51556;SDS011;38766;53.194;5.532;2024-01-10T07:20:57;22.00;;;13.45;;
51556;SDS011;38766;53.194;5.532;2024-01-10T07:23:23;25.10;;;15.00;;
51556;SDS011;38766;53.194;5.532;2024-01-10T07:25:49;23.45;;;13.57;;
51556;SDS011;38766;53.194;5.532;2024-01-10T07:28:15;21.17;;;14.02;;
51556;SDS011;38766;53.194;5.532;2024-01-10T07:30:41;24.80;;;14.15;;
51556;SDS011;38766;53.194;5.532;2024-01-10T07:33:07;22.00;;;14.23;;
51556;SDS011;38766;53.194;5.532;2024-01-10T07:35:33;23.05;;;14.02;;
51556;SDS011;38766;53.194;5.532;2024-01-10T07:37:58;20.10;;;13.25;;
51556;SDS011;38766;53.194;5.532;2024-01-10T07:40:24;23.25;;;14.23;;
51556;SDS011;38766;53.194;5.532;2024-01-10T07:42:50;21.25;;;13.68;;
51556;SDS011;38766;53.194;5.532;2024-01-10T07:45:18;23.30;;;13.43;;
51556;SDS011;38766;53.194;5.532;2024-01-10T07:47:43;24.13;;;13.30;;
51556;SDS011;38766;53.194;5.532;2024-01-10T07:50:10;22.67;;;12.73;;
51556;SDS011;38766;53.194;5.532;2024-01-10T07:52:39;19.75;;;13.20;;
51556;SDS011;38766;53.194;5.532;2024-01-10T07:55:05;22.15;;;13.32;;
51556;SDS011;38766;53.194;5.532;2024-01-10T07:57:33;23.55;;;12.77;;
51556;SDS011;38766;53.194;5.532;2024-01-10T07:59:59;22.95;;;12.43;;
51556;SDS011;38766;53.194;5.532;2024-01-10T08:02:25;18.80;;;11.73;;
51556;SDS011;38766;53.194;5.532;2024-01-10T08:04:51;18.15;;;11.43;;
51556;SDS011;38766;53.194;5.532;2024-01-10T08:07:17;18.25;;;11.75;;
51556;SDS011;38766;53.194;5.532;2024-01-10T08:09:43;21.33;;;12.73;;
51556;SDS011;38766;53.194;5.532;2024-01-10T08:12:08;18.83;;;11.63;;
51556;SDS011;38766;53.194;5.532;2024-01-10T08:14:34;20.58;;;11.85;;
51556;SDS011;38766;53.194;5.532;2024-01-10T08:16:59;19.95;;;11.48;;
51556;SDS011;38766;53.194;5.532;2024-01-10T08:19:25;17.33;;;11.43;;
51556;SDS011;38766;53.194;5.532;2024-01-10T08:21:52;19.48;;;11.15;;
51556;SDS011;38766;53.194;5.532;2024-01-10T08:24:18;18.38;;;11.52;;
51556;SDS011;38766;53.194;5.532;2024-01-10T08:26:44;18.08;;;11.18;;
51556;SDS011;38766;53.194;5.532;2024-01-10T08:29:10;15.88;;;10.63;;
51556;SDS011;38766;53.194;5.532;2024-01-10T08:31:36;18.38;;;10.57;;
51556;SDS011;38766;53.194;5.532;2024-01-10T08:34:01;15.98;;;9.93;;
51556;SDS011;38766;53.194;5.532;2024-01-10T08:36:27;16.67;;;10.20;;
51556;SDS011;38766;53.194;5.532;2024-01-10T08:38:53;16.88;;;10.30;;
51556;SDS011;38766;53.194;5.532;2024-01-10T08:41:19;19.05;;;10.95;;
51556;SDS011;38766;53.194;5.532;2024-01-10T08:43:46;15.55;;;9.10;;
51556;SDS011;38766;53.194;5.532;2024-01-10T08:46:12;14.02;;;8.98;;
51556;SDS011;38766;53.194;5.532;2024-01-10T08:48:37;15.93;;;9.88;;
51556;SDS011;38766;53.194;5.532;2024-01-10T08:51:03;14.85;;;9.50;;
51556;SDS011;38766;53.194;5.532;2024-01-10T08:53:29;14.30;;;8.70;;
51556;SDS011;38766;53.194;5.532;2024-01-10T08:55:55;14.40;;;9.00;;
51556;SDS011;38766;53.194;5.532;2024-01-10T08:58:20;13.57;;;9.02;;
51556;SDS011;38766;53.194;5.532;2024-01-10T09:00:46;15.82;;;9.15;;
51556;SDS011;38766;53.194;5.532;2024-01-10T09:03:12;15.77;;;8.77;;
51556;SDS011;38766;53.194;5.532;2024-01-10T09:05:38;14.32;;;9.20;;
51556;SDS011;38766;53.194;5.532;2024-01-10T09:08:04;12.65;;;8.55;;
51556;SDS011;38766;53.194;5.532;2024-01-10T09:10:29;13.77;;;8.77;;
51556;SDS011;38766;53.194;5.532;2024-01-10T09:12:55;13.77;;;8.93;;
51556;SDS011;38766;53.194;5.532;2024-01-10T09:15:23;14.18;;;9.00;;
51556;SDS011;38766;53.194;5.532;2024-01-10T09:17:50;13.85;;;8.60;;
51556;SDS011;38766;53.194;5.532;2024-01-10T09:20:17;14.98;;;8.60;;
51556;SDS011;38766;53.194;5.532;2024-01-10T09:22:43;12.43;;;8.35;;
51556;SDS011;38766;53.194;5.532;2024-01-10T09:25:09;12.98;;;8.57;;
51556;SDS011;38766;53.194;5.532;2024-01-10T09:27:38;13.85;;;8.48;;
51556;SDS011;38766;53.194;5.532;2024-01-10T09:30:06;12.23;;;8.10;;
51556;SDS011;38766;53.194;5.532;2024-01-10T09:32:35;13.13;;;8.68;;
51556;SDS011;38766;53.194;5.532;2024-01-10T09:35:02;13.50;;;8.63;;
51556;SDS011;38766;53.194;5.532;2024-01-10T09:37:28;13.40;;;8.60;;
51556;SDS011;38766;53.194;5.532;2024-01-10T09:39:53;15.13;;;8.75;;
51556;SDS011;38766;53.194;5.532;2024-01-10T09:42:19;12.50;;;8.32;;
51556;SDS011;38766;53.194;5.532;2024-01-10T09:44:52;12.93;;;8.05;;
51556;SDS011;38766;53.194;5.532;2024-01-10T09:47:17;14.00;;;8.65;;
51556;SDS011;38766;53.194;5.532;2024-01-10T09:49:45;13.02;;;7.75;;
51556;SDS011;38766;53.194;5.532;2024-01-10T09:52:14;12.95;;;7.57;;
51556;SDS011;38766;53.194;5.532;2024-01-10T09:54:48;14.20;;;8.15;;
51556;SDS011;38766;53.194;5.532;2024-01-10T09:57:22;12.55;;;7.90;;
51556;SDS011;38766;53.194;5.532;2024-01-10T09:59:49;12.05;;;7.90;;
51556;SDS011;38766;53.194;5.532;2024-01-10T10:02:22;11.25;;;7.40;;
51556;SDS011;38766;53.194;5.532;2024-01-10T10:05:34;10.27;;;7.15;;
51556;SDS011;38766;53.194;5.532;2024-01-10T10:07:46;10.82;;;7.10;;
51556;SDS011;38766;53.194;5.532;2024-01-10T10:10:13;11.35;;;7.55;;
51556;SDS011;38766;53.194;5.532;2024-01-10T10:12:44;10.32;;;6.72;;
51556;SDS011;38766;53.194;5.532;2024-01-10T10:17:41;15.15;;;7.72;;
51556;SDS011;38766;53.194;5.532;2024-01-10T10:23:06;12.55;;;7.18;;
51556;SDS011;38766;53.194;5.532;2024-01-10T10:25:32;12.75;;;7.38;;
51556;SDS011;38766;53.194;5.532;2024-01-10T10:27:58;11.55;;;7.20;;
51556;SDS011;38766;53.194;5.532;2024-01-10T10:30:25;11.38;;;6.65;;
51556;SDS011;38766;53.194;5.532;2024-01-10T10:33:03;14.40;;;6.85;;
51556;SDS011;38766;53.194;5.532;2024-01-10T10:35:32;12.80;;;6.43;;
51556;SDS011;38766;53.194;5.532;2024-01-10T10:37:58;14.07;;;7.45;;
51556;SDS011;38766;53.194;5.532;2024-01-10T10:40:24;14.80;;;7.10;;
51556;SDS011;38766;53.194;5.532;2024-01-10T10:42:56;11.43;;;6.82;;
51556;SDS011;38766;53.194;5.532;2024-01-10T10:45:22;14.25;;;6.90;;
51556;SDS011;38766;53.194;5.532;2024-01-10T10:47:56;12.80;;;6.97;;
51556;SDS011;38766;53.194;5.532;2024-01-10T10:50:24;12.30;;;6.93;;
51556;SDS011;38766;53.194;5.532;2024-01-10T10:52:54;13.18;;;7.03;;
51556;SDS011;38766;53.194;5.532;2024-01-10T10:55:23;11.90;;;6.75;;
51556;SDS011;38766;53.194;5.532;2024-01-10T10:57:51;13.90;;;7.28;;
51556;SDS011;38766;53.194;5.532;2024-01-10T11:00:19;11.98;;;7.03;;
51556;SDS011;38766;53.194;5.532;2024-01-10T11:02:50;12.88;;;7.32;;
51556;SDS011;38766;53.194;5.532;2024-01-10T11:05:15;11.52;;;6.50;;
51556;SDS011;38766;53.194;5.532;2024-01-10T11:07:42;12.18;;;7.05;;
51556;SDS011;38766;53.194;5.532;2024-01-10T11:10:13;11.18;;;6.40;;
51556;SDS011;38766;53.194;5.532;2024-01-10T11:18:33;10.68;;;5.93;;
51556;SDS011;38766;53.194;5.532;2024-01-10T11:23:50;10.13;;;6.10;;
51556;SDS011;38766;53.194;5.532;2024-01-10T11:26:21;11.43;;;6.45;;
51556;SDS011;38766;53.194;5.532;2024-01-10T11:28:47;13.77;;;7.05;;
51556;SDS011;38766;53.194;5.532;2024-01-10T11:31:13;11.23;;;6.55;;
51556;SDS011;38766;53.194;5.532;2024-01-10T11:33:43;14.43;;;6.30;;
51556;SDS011;38766;53.194;5.532;2024-01-10T11:36:11;12.25;;;6.50;;
51556;SDS011;38766;53.194;5.532;2024-01-10T11:39:03;10.73;;;5.82;;
51556;SDS011;38766;53.194;5.532;2024-01-10T11:41:38;11.43;;;6.20;;
51556;SDS011;38766;53.194;5.532;2024-01-10T11:46:41;10.88;;;6.15;;
51556;SDS011;38766;53.194;5.532;2024-01-10T11:49:08;14.15;;;6.60;;
51556;SDS011;38766;53.194;5.532;2024-01-10T11:51:38;13.57;;;6.65;;
51556;SDS011;38766;53.194;5.532;2024-01-10T11:54:03;9.90;;;5.43;;
51556;SDS011;38766;53.194;5.532;2024-01-10T11:56:38;11.13;;;6.05;;
51556;SDS011;38766;53.194;5.532;2024-01-10T11:59:11;11.77;;;6.57;;
51556;SDS011;38766;53.194;5.532;2024-01-10T12:01:41;11.40;;;6.43;;
51556;SDS011;38766;53.194;5.532;2024-01-10T12:04:07;10.13;;;5.60;;
51556;SDS011;38766;53.194;5.532;2024-01-10T12:06:36;11.60;;;6.15;;
51556;SDS011;38766;53.194;5.532;2024-01-10T12:09:02;11.95;;;6.07;;
51556;SDS011;38766;53.194;5.532;2024-01-10T12:11:38;11.23;;;6.07;;
51556;SDS011;38766;53.194;5.532;2024-01-10T12:14:05;11.98;;;6.25;;
51556;SDS011;38766;53.194;5.532;2024-01-10T12:16:34;9.52;;;5.80;;
51556;SDS011;38766;53.194;5.532;2024-01-10T12:19:00;11.70;;;6.20;;
51556;SDS011;38766;53.194;5.532;2024-01-10T12:21:26;12.50;;;6.82;;
51556;SDS011;38766;53.194;5.532;2024-01-10T12:23:52;12.10;;;6.28;;
51556;SDS011;38766;53.194;5.532;2024-01-10T12:26:18;12.60;;;6.18;;
51556;SDS011;38766;53.194;5.532;2024-01-10T12:28:59;9.77;;;5.50;;
51556;SDS011;38766;53.194;5.532;2024-01-10T12:31:29;12.30;;;6.65;;
51556;SDS011;38766;53.194;5.532;2024-01-10T12:33:55;13.02;;;6.15;;
51556;SDS011;38766;53.194;5.532;2024-01-10T12:36:21;12.23;;;6.72;;
51556;SDS011;38766;53.194;5.532;2024-01-10T12:38:47;14.77;;;7.05;;
51556;SDS011;38766;53.194;5.532;2024-01-10T12:41:16;14.57;;;6.97;;
51556;SDS011;38766;53.194;5.532;2024-01-10T12:43:43;10.73;;;6.28;;
51556;SDS011;38766;53.194;5.532;2024-01-10T12:46:14;12.15;;;5.97;;
51556;SDS011;38766;53.194;5.532;2024-01-10T12:48:40;10.93;;;5.88;;
51556;SDS011;38766;53.194;5.532;2024-01-10T12:51:12;14.45;;;6.45;;
51556;SDS011;38766;53.194;5.532;2024-01-10T12:53:42;20.08;;;6.28;;
51556;SDS011;38766;53.194;5.532;2024-01-10T12:56:09;10.75;;;5.57;;
51556;SDS011;38766;53.194;5.532;2024-01-10T12:58:39;11.10;;;5.80;;
51556;SDS011;38766;53.194;5.532;2024-01-10T13:01:07;12.57;;;6.63;;
51556;SDS011;38766;53.194;5.532;2024-01-10T13:03:33;9.85;;;5.78;;
51556;SDS011;38766;53.194;5.532;2024-01-10T13:05:59;11.95;;;6.13;;
51556;SDS011;38766;53.194;5.532;2024-01-10T13:08:25;13.88;;;6.70;;
51556;SDS011;38766;53.194;5.532;2024-01-10T13:10:51;12.00;;;5.78;;
51556;SDS011;38766;53.194;5.532;2024-01-10T13:13:16;11.45;;;6.25;;
51556;SDS011;38766;53.194;5.532;2024-01-10T13:15:44;11.55;;;5.93;;
51556;SDS011;38766;53.194;5.532;2024-01-10T13:18:12;11.52;;;5.95;;
51556;SDS011;38766;53.194;5.532;2024-01-10T13:20:40;11.07;;;5.63;;
51556;SDS011;38766;53.194;5.532;2024-01-10T13:23:06;10.02;;;5.63;;
51556;SDS011;38766;53.194;5.532;2024-01-10T13:25:32;12.80;;;6.15;;
51556;SDS011;38766;53.194;5.532;2024-01-10T13:27:59;8.02;;;5.03;;
51556;SDS011;38766;53.194;5.532;2024-01-10T13:30:25;11.40;;;5.97;;
51556;SDS011;38766;53.194;5.532;2024-01-10T13:32:51;12.18;;;5.82;;
51556;SDS011;38766;53.194;5.532;2024-01-10T13:35:17;9.55;;;5.22;;
51556;SDS011;38766;53.194;5.532;2024-01-10T13:37:43;10.52;;;5.38;;
51556;SDS011;38766;53.194;5.532;2024-01-10T13:40:10;10.60;;;5.55;;
51556;SDS011;38766;53.194;5.532;2024-01-10T13:42:41;9.85;;;4.97;;
51556;SDS011;38766;53.194;5.532;2024-01-10T13:45:08;12.80;;;5.85;;
51556;SDS011;38766;53.194;5.532;2024-01-10T13:47:37;14.13;;;5.65;;
51556;SDS011;38766;53.194;5.532;2024-01-10T13:50:04;11.40;;;5.50;;
51556;SDS011;38766;53.194;5.532;2024-01-10T13:52:31;10.18;;;5.40;;
51556;SDS011;38766;53.194;5.532;2024-01-10T13:54:57;9.10;;;5.07;;
51556;SDS011;38766;53.194;5.532;2024-01-10T13:57:23;9.73;;;5.22;;
51556;SDS011;38766;53.194;5.532;2024-01-10T13:59:48;8.60;;;5.18;;
51556;SDS011;38766;53.194;5.532;2024-01-10T14:02:14;10.25;;;5.30;;
51556;SDS011;38766;53.194;5.532;2024-01-10T14:04:41;11.65;;;5.47;;
51556;SDS011;38766;53.194;5.532;2024-01-10T14:07:06;10.52;;;5.28;;
51556;SDS011;38766;53.194;5.532;2024-01-10T14:09:32;10.57;;;5.55;;
51556;SDS011;38766;53.194;5.532;2024-01-10T14:11:58;8.98;;;4.68;;
51556;SDS011;38766;53.194;5.532;2024-01-10T14:14:24;10.07;;;5.60;;
51556;SDS011;38766;53.194;5.532;2024-01-10T14:16:50;10.52;;;5.25;;
51556;SDS011;38766;53.194;5.532;2024-01-10T14:19:15;9.70;;;5.13;;
51556;SDS011;38766;53.194;5.532;2024-01-10T14:21:44;10.82;;;5.63;;
51556;SDS011;38766;53.194;5.532;2024-01-10T14:24:11;10.95;;;5.55;;
51556;SDS011;38766;53.194;5.532;2024-01-10T14:26:37;10.85;;;5.55;;
51556;SDS011;38766;53.194;5.532;2024-01-10T14:29:03;10.73;;;5.28;;
51556;SDS011;38766;53.194;5.532;2024-01-10T14:31:29;11.23;;;6.00;;
51556;SDS011;38766;53.194;5.532;2024-01-10T14:33:55;9.45;;;5.13;;
51556;SDS011;38766;53.194;5.532;2024-01-10T14:36:22;8.95;;;5.10;;
51556;SDS011;38766;53.194;5.532;2024-01-10T14:38:47;11.35;;;5.00;;
51556;SDS011;38766;53.194;5.532;2024-01-10T14:41:13;11.75;;;5.85;;
51556;SDS011;38766;53.194;5.532;2024-01-10T14:43:39;13.02;;;6.10;;